Time;durP1;ratioP1;P1;durP2;ratioP2;P2;SDS_P1;SDS_P2;PMS_P1;PMS_P2;Temp;Humidity;BMP_temperature;BMP_pressure;BME280_temperature;BME280_humidity;BME280_pressure;Samples;Min_cycle;Max_cycle;Signal;HPM_P1;HPM_P2
2024/01/10 00:00:18;;;;;;;17.10;7.85;;;-0.90;99.90;;;;;;5099966;28;20030;-71
2024/01/10 00:02:44;;;;;;;13.43;7.00;;;-0.90;99.90;;;;;;5100282;28;20114;-70
2024/01/10 00:05:09;;;;;;;14.65;7.45;;;-0.90;99.90;;;;;;5111756;28;20236;-70
2024/01/10 00:07:36;;;;;;;15.45;7.63;;;-0.90;99.90;;;;;;5111931;28;20106;-70
2024/01/10 00:10:02;;;;;;;14.20;7.88;;;-1.00;99.90;;;;;;5105116;28;20024;-69
2024/01/10 00:12:33;;;;;;;17.08;8.70;;;-1.00;99.90;;;;;;5101133;28;20073;-68
2024/01/10 00:14:58;;;;;;;15.95;8.18;;;-1.00;99.90;;;;;;5106105;28;20031;-70
2024/01/10 00:17:24;;;;;;;16.17;8.35;;;-1.00;99.90;;;;;;5113466;28;20027;-68
2024/01/10 00:19:50;;;;;;;13.65;7.55;;;-1.00;99.90;;;;;;5103893;28;20043;-70
2024/01/10 00:22:15;;;;;;;16.10;8.77;;;-1.00;99.90;;;;;;5105661;28;20034;-68
2024/01/10 00:24:41;;;;;;;16.20;8.60;;;-1.00;99.90;;;;;;5109798;28;20032;-70
2024/01/10 00:27:06;;;;;;;16.25;8.45;;;-1.00;99.90;;;;;;5093743;28;20034;-71
2024/01/10 00:29:32;;;;;;;17.85;8.90;;;-1.00;99.90;;;;;;5099599;28;20020;-69
2024/01/10 00:31:59;;;;;;;16.98;8.85;;;-1.00;99.90;;;;;;5113159;28;20035;-69
2024/01/10 00:34:25;;;;;;;15.50;8.63;;;-1.10;99.90;;;;;;5112594;28;20457;-68
2024/01/10 00:36:50;;;;;;;16.10;8.50;;;-1.10;99.90;;;;;;5110515;28;20024;-68
2024/01/10 00:39:16;;;;;;;18.52;9.48;;;-1.10;99.90;;;;;;5112976;28;20027;-68
2024/01/10 00:41:42;;;;;;;17.50;9.10;;;-1.10;99.90;;;;;;5112917;28;20767;-69
2024/01/10 00:44:08;;;;;;;17.77;9.65;;;-1.10;99.90;;;;;;5113138;28;20098;-69
2024/01/10 00:46:33;;;;;;;18.38;9.13;;;-1.10;99.90;;;;;;5113179;28;20026;-70
2024/01/10 00:48:59;;;;;;;15.75;8.45;;;-1.10;99.90;;;;;;5112625;28;20047;-71
2024/01/10 00:51:24;;;;;;;17.95;9.27;;;-1.10;99.90;;;;;;5111297;28;20393;-70
2024/01/10 00:53:50;;;;;;;17.38;9.27;;;-1.10;99.90;;;;;;5112076;28;20031;-71
2024/01/10 00:56:16;;;;;;;17.23;9.10;;;-1.10;99.90;;;;;;5112741;28;20435;-68
2024/01/10 00:58:42;;;;;;;15.85;9.20;;;-1.10;99.90;;;;;;5112707;28;20019;-70
2024/01/10 01:01:07;;;;;;;17.92;9.73;;;-1.10;99.90;;;;;;5112751;28;20111;-70
2024/01/10 01:03:33;;;;;;;18.67;9.63;;;-1.20;99.90;;;;;;5112738;28;20028;-68
2024/01/10 01:05:58;;;;;;;16.10;8.88;;;-1.20;99.90;;;;;;5112852;28;20051;-70
2024/01/10 01:08:24;;;;;;;19.45;9.48;;;-1.20;99.90;;;;;;5094463;28;20067;-69
2024/01/10 01:10:49;;;;;;;20.25;10.43;;;-1.20;99.90;;;;;;5098649;28;20062;-68
2024/01/10 01:13:15;;;;;;;18.38;9.38;;;-1.20;99.90;;;;;;5110860;28;20027;-68
2024/01/10 01:15:41;;;;;;;19.50;10.10;;;-1.20;99.90;;;;;;5112840;28;20036;-68
2024/01/10 01:18:06;;;;;;;17.50;9.80;;;-1.20;99.90;;;;;;5112892;28;20020;-70
2024/01/10 01:20:32;;;;;;;19.05;10.23;;;-1.20;99.90;;;;;;5112487;28;20027;-69
2024/01/10 01:22:58;;;;;;;18.05;9.95;;;-1.20;99.90;;;;;;5094213;28;20449;-69
2024/01/10 01:25:24;;;;;;;17.85;10.23;;;-1.20;99.90;;;;;;5112081;28;20019;-71
2024/01/10 01:27:49;;;;;;;19.77;10.15;;;-1.20;99.90;;;;;;5106894;28;20046;-69
2024/01/10 01:30:15;;;;;;;19.50;10.68;;;-1.20;99.90;;;;;;5077403;28;20027;-69
2024/01/10 01:32:40;;;;;;;20.45;11.15;;;-1.20;99.90;;;;;;5101219;28;20047;-68
2024/01/10 01:35:06;;;;;;;19.92;10.55;;;-1.20;99.90;;;;;;5089553;28;20055;-70
2024/01/10 01:37:32;;;;;;;18.80;10.68;;;-1.20;99.90;;;;;;5097065;28;20035;-70
2024/01/10 01:39:57;;;;;;;18.15;9.88;;;-1.20;99.90;;;;;;5110518;28;20031;-70
2024/01/10 01:42:23;;;;;;;19.13;10.38;;;-1.20;99.90;;;;;;5095717;28;20028;-70
2024/01/10 01:44:49;;;;;;;18.75;10.68;;;-1.20;99.90;;;;;;5112446;28;20044;-69
2024/01/10 01:47:15;;;;;;;18.85;9.45;;;-1.20;99.90;;;;;;5111161;28;20530;-70
2024/01/10 01:49:42;;;;;;;19.48;10.10;;;-1.20;99.90;;;;;;5097494;28;20035;-70
2024/01/10 01:52:09;;;;;;;19.80;10.30;;;-1.20;99.90;;;;;;5116543;28;20024;-69
2024/01/10 01:54:35;;;;;;;19.20;10.65;;;-1.20;99.90;;;;;;5114715;28;20028;-68
2024/01/10 01:57:00;;;;;;;18.67;10.45;;;-1.20;99.90;;;;;;5116776;28;20039;-70
2024/01/10 01:59:27;;;;;;;19.30;10.77;;;-1.20;99.90;;;;;;5116316;28;20062;-69
2024/01/10 02:01:56;;;;;;;19.35;10.30;;;-1.20;99.90;;;;;;5110826;28;20024;-68
2024/01/10 02:04:23;;;;;;;19.55;11.00;;;-1.20;99.90;;;;;;5116479;28;20032;-70
2024/01/10 02:06:48;;;;;;;18.83;10.73;;;-1.20;99.90;;;;;;5116063;28;20036;-69
2024/01/10 02:09:14;;;;;;;19.58;10.70;;;-1.20;99.90;;;;;;5114449;28;20510;-69
2024/01/10 02:11:39;;;;;;;19.25;10.77;;;-1.20;99.90;;;;;;5115830;28;20024;-69
2024/01/10 02:14:05;;;;;;;20.58;11.57;;;-1.20;99.90;;;;;;5116229;28;20023;-70
2024/01/10 02:16:31;;;;;;;20.83;11.13;;;-1.20;99.90;;;;;;5116063;28;20080;-69
2024/01/10 02:18:57;;;;;;;19.35;11.13;;;-1.20;99.90;;;;;;5102400;28;20118;-70
2024/01/10 02:21:23;;;;;;;21.23;11.93;;;-1.20;99.90;;;;;;5116053;28;20326;-71
2024/01/10 02:23:48;;;;;;;19.30;10.70;;;-1.30;99.90;;;;;;5093226;28;20476;-69
2024/01/10 02:26:17;;;;;;;20.83;10.75;;;-1.30;99.90;;;;;;5109128;28;20035;-70
2024/01/10 02:28:43;;;;;;;19.50;10.30;;;-1.30;99.90;;;;;;5115744;28;20028;-69
2024/01/10 02:31:08;;;;;;;20.73;10.77;;;-1.30;99.90;;;;;;5097482;28;20384;-70
2024/01/10 02:33:34;;;;;;;19.55;10.88;;;-1.30;99.90;;;;;;5115529;28;20030;-69
2024/01/10 02:35:59;;;;;;;19.40;10.52;;;-1.30;99.90;;;;;;5110473;28;20094;-68
2024/01/10 02:38:26;;;;;;;20.95;11.40;;;-1.30;99.90;;;;;;5115207;28;20035;-70
2024/01/10 02:40:52;;;;;;;19.30;10.85;;;-1.30;99.90;;;;;;5110118;28;20370;-71
2024/01/10 02:43:17;;;;;;;20.63;11.50;;;-1.40;99.90;;;;;;5111005;28;20027;-69
2024/01/10 02:45:43;;;;;;;20.08;11.55;;;-1.40;99.90;;;;;;5115415;28;20032;-68
2024/01/10 02:48:09;;;;;;;21.50;11.40;;;-1.40;99.90;;;;;;5115014;28;20077;-70
2024/01/10 02:50:34;;;;;;;21.33;11.70;;;-1.40;99.90;;;;;;5099521;28;20036;-68
2024/01/10 02:53:00;;;;;;;20.45;11.05;;;-1.40;99.90;;;;;;5096137;28;20028;-69
2024/01/10 02:55:25;;;;;;;19.60;11.02;;;-1.40;99.90;;;;;;5096344;28;20044;-71
2024/01/10 02:57:51;;;;;;;20.05;10.93;;;-1.40;99.90;;;;;;5096472;28;20056;-68
2024/01/10 03:00:17;;;;;;;19.55;10.80;;;-1.40;99.90;;;;;;5098557;28;20032;-70
2024/01/10 03:02:42;;;;;;;18.98;10.98;;;-1.40;99.90;;;;;;5114428;28;20027;-70
2024/01/10 03:05:08;;;;;;;21.70;11.30;;;-1.40;99.90;;;;;;5114617;28;20096;-69
2024/01/10 03:07:33;;;;;;;18.77;11.23;;;-1.40;99.90;;;;;;5096550;28;20044;-68
2024/01/10 03:09:59;;;;;;;16.58;9.77;;;-1.40;99.90;;;;;;5108194;28;20032;-69
2024/01/10 03:12:24;;;;;;;19.13;10.77;;;-1.40;99.90;;;;;;5111219;28;20027;-67
2024/01/10 03:14:50;;;;;;;19.13;11.27;;;-1.40;99.90;;;;;;5115136;28;20030;-68
2024/01/10 03:17:16;;;;;;;21.30;11.43;;;-1.40;99.90;;;;;;5114601;28;20027;-69
2024/01/10 03:19:43;;;;;;;19.60;11.23;;;-1.40;99.90;;;;;;5115035;28;20035;-70
2024/01/10 03:22:11;;;;;;;20.92;11.43;;;-1.40;99.90;;;;;;5096316;28;20140;-68
2024/01/10 03:24:36;;;;;;;20.00;11.65;;;-1.40;99.90;;;;;;5114792;28;20016;-69
2024/01/10 03:27:03;;;;;;;19.85;11.40;;;-1.40;99.90;;;;;;5100165;28;20062;-68
2024/01/10 03:29:29;;;;;;;20.63;10.98;;;-1.40;99.90;;;;;;5114800;28;20036;-72
2024/01/10 03:31:54;;;;;;;19.95;10.98;;;-1.40;99.90;;;;;;5110010;28;20031;-69
2024/01/10 03:34:20;;;;;;;20.02;10.77;;;-1.40;99.90;;;;;;5112801;28;20074;-71
2024/01/10 03:36:45;;;;;;;19.55;10.60;;;-1.40;99.90;;;;;;5114265;28;20023;-68
2024/01/10 03:39:11;;;;;;;19.65;10.70;;;-1.40;99.90;;;;;;5113885;28;20026;-67
2024/01/10 03:41:36;;;;;;;18.83;9.27;;;-1.30;99.90;;;;;;5114279;28;20453;-69
2024/01/10 03:44:02;;;;;;;16.92;9.73;;;-1.30;99.90;;;;;;5084297;28;20488;-69
2024/01/10 03:46:27;;;;;;;17.55;9.43;;;-1.40;99.90;;;;;;5113982;28;20031;-69
2024/01/10 03:48:53;;;;;;;19.77;10.25;;;-1.30;99.90;;;;;;5095858;28;20035;-70
2024/01/10 03:51:19;;;;;;;19.95;10.57;;;-1.30;99.90;;;;;;5114119;28;20073;-70
2024/01/10 03:53:45;;;;;;;18.70;10.10;;;-1.30;99.90;;;;;;5114024;28;20027;-71
2024/01/10 03:56:14;;;;;;;20.33;10.95;;;-1.30;99.90;;;;;;5112132;28;20024;-70
2024/01/10 03:58:40;;;;;;;16.70;9.68;;;-1.30;99.90;;;;;;5112536;28;20075;-71
2024/01/10 04:01:07;;;;;;;19.83;9.80;;;-1.30;99.90;;;;;;5093349;28;20363;-70
2024/01/10 04:03:33;;;;;;;18.23;10.07;;;-1.30;99.90;;;;;;5101395;28;20035;-70
2024/01/10 04:05:59;;;;;;;16.98;9.60;;;-1.30;99.90;;;;;;5104769;28;20051;-70
2024/01/10 04:08:24;;;;;;;19.30;10.98;;;-1.30;99.90;;;;;;5105961;28;20044;-69
2024/01/10 04:10:50;;;;;;;18.58;10.13;;;-1.30;99.90;;;;;;5113898;28;20023;-68
2024/01/10 04:13:15;;;;;;;19.58;10.55;;;-1.30;99.90;;;;;;5112056;28;20114;-70
2024/01/10 04:15:41;;;;;;;18.45;10.30;;;-1.30;99.90;;;;;;5111688;28;20085;-71
2024/01/10 04:18:07;;;;;;;19.60;10.70;;;-1.30;99.90;;;;;;5107392;28;20457;-69
2024/01/10 04:20:32;;;;;;;20.27;10.68;;;-1.30;99.90;;;;;;5113477;28;20085;-70
2024/01/10 04:22:58;;;;;;;18.63;10.13;;;-1.30;99.90;;;;;;5113945;28;20031;-70
2024/01/10 04:25:23;;;;;;;19.25;10.40;;;-1.20;99.90;;;;;;5113715;28;20106;-70
2024/01/10 04:27:50;;;;;;;17.23;9.88;;;-1.20;99.90;;;;;;5113658;28;20036;-71
2024/01/10 04:30:16;;;;;;;19.77;10.73;;;-1.20;99.90;;;;;;5113770;28;20019;-70
2024/01/10 04:32:41;;;;;;;20.17;10.63;;;-1.20;99.90;;;;;;5094951;28;20440;-69
2024/01/10 04:35:07;;;;;;;19.70;9.85;;;-1.20;99.90;;;;;;5098820;28;20028;-71
2024/01/10 04:37:32;;;;;;;17.70;10.02;;;-1.20;99.90;;;;;;5113368;28;20028;-70
2024/01/10 04:39:58;;;;;;;18.95;10.27;;;-1.20;99.90;;;;;;5113824;28;20031;-69
2024/01/10 04:42:23;;;;;;;19.77;10.15;;;-1.20;99.90;;;;;;5095056;28;20028;-68
2024/01/10 04:44:49;;;;;;;18.30;9.85;;;-1.20;99.90;;;;;;5096620;28;20111;-70
2024/01/10 04:47:15;;;;;;;18.73;9.77;;;-1.20;99.90;;;;;;5110916;28;20027;-68
2024/01/10 04:49:40;;;;;;;18.52;9.55;;;-1.20;99.90;;;;;;5112679;28;20047;-68
2024/01/10 04:52:06;;;;;;;15.98;9.15;;;-1.20;99.90;;;;;;5108026;28;20537;-68
2024/01/10 04:54:32;;;;;;;18.27;9.20;;;-1.20;99.90;;;;;;5113209;28;20027;-70
2024/01/10 04:56:57;;;;;;;18.95;9.65;;;-1.20;99.90;;;;;;5111291;28;20446;-68
2024/01/10 04:59:23;;;;;;;19.80;10.07;;;-1.20;99.90;;;;;;5112969;28;20098;-69
2024/01/10 05:01:49;;;;;;;19.48;10.23;;;-1.20;99.90;;;;;;5110524;28;20036;-69
2024/01/10 05:04:14;;;;;;;20.25;9.55;;;-1.20;99.90;;;;;;5112408;28;20043;-68
2024/01/10 05:06:41;;;;;;;18.20;9.25;;;-1.20;99.90;;;;;;5112832;28;20083;-70
2024/01/10 05:09:07;;;;;;;20.27;10.45;;;-1.20;99.90;;;;;;5099337;28;20023;-69
2024/01/10 05:11:35;;;;;;;19.33;9.40;;;-1.20;99.90;;;;;;5112547;28;20027;-68
2024/01/10 05:14:01;;;;;;;17.88;8.77;;;-1.20;99.90;;;;;;5112947;28;20034;-68
2024/01/10 05:16:27;;;;;;;15.20;8.05;;;-1.20;99.90;;;;;;5112962;28;20024;-67
2024/01/10 05:18:52;;;;;;;17.92;8.55;;;-1.10;99.90;;;;;;5111012;28;20132;-70
2024/01/10 05:21:18;;;;;;;17.55;9.43;;;-1.10;99.90;;;;;;5112211;28;20366;-68
2024/01/10 05:23:43;;;;;;;17.15;8.82;;;-1.10;99.90;;;;;;5112590;28;20024;-70
2024/01/10 05:26:09;;;;;;;17.42;9.23;;;-1.10;99.90;;;;;;5107736;28;20019;-69
2024/01/10 05:28:35;;;;;;;15.88;8.32;;;-1.10;99.90;;;;;;5112793;28;20382;-69
2024/01/10 05:31:01;;;;;;;17.83;9.13;;;-1.20;99.90;;;;;;5112978;28;20297;-70
2024/01/10 05:33:26;;;;;;;15.98;8.60;;;-1.10;99.90;;;;;;5112771;28;20027;-70
2024/01/10 05:35:52;;;;;;;14.77;7.97;;;-1.20;99.90;;;;;;5111115;28;20538;-70
2024/01/10 05:38:17;;;;;;;15.35;8.02;;;-1.10;99.90;;;;;;5112552;28;20358;-69
2024/01/10 05:40:43;;;;;;;17.38;8.40;;;-1.10;99.90;;;;;;5109244;28;20470;-71
2024/01/10 05:43:10;;;;;;;16.80;8.40;;;-1.10;99.90;;;;;;5109604;28;20537;-70
2024/01/10 05:45:36;;;;;;;15.45;8.15;;;-1.20;99.90;;;;;;5106128;28;20020;-70
2024/01/10 05:48:01;;;;;;;16.88;8.55;;;-1.10;99.90;;;;;;5103252;28;20380;-70
2024/01/10 05:50:27;;;;;;;15.75;7.80;;;-1.10;99.90;;;;;;5107449;28;20019;-69
2024/01/10 05:52:53;;;;;;;15.65;8.00;;;-1.10;99.90;;;;;;5098336;28;20030;-68
2024/01/10 05:55:19;;;;;;;16.45;7.65;;;-1.10;99.90;;;;;;5111807;28;20064;-69
2024/01/10 05:57:45;;;;;;;15.98;7.30;;;-1.10;99.90;;;;;;5110167;28;20035;-70
2024/01/10 06:00:12;;;;;;;15.55;7.45;;;-1.10;99.90;;;;;;5111386;28;20036;-68
2024/01/10 06:02:39;;;;;;;14.63;7.60;;;-1.10;99.90;;;;;;5110544;28;20032;-69
2024/01/10 06:05:09;;;;;;;14.57;6.82;;;-1.10;99.90;;;;;;5110866;28;20035;-70
2024/01/10 06:07:35;;;;;;;14.45;7.40;;;-1.10;99.90;;;;;;5097170;28;20088;-70
2024/01/10 06:10:03;;;;;;;14.45;7.18;;;-1.20;99.90;;;;;;5111910;28;20153;-69
2024/01/10 06:12:29;;;;;;;14.50;7.15;;;-1.10;99.90;;;;;;5098824;28;20030;-70
2024/01/10 06:14:55;;;;;;;12.35;7.03;;;-1.10;99.90;;;;;;5124120;28;20118;-69
2024/01/10 06:17:21;;;;;;;16.40;7.75;;;-1.10;99.90;;;;;;5094189;28;20026;-69
2024/01/10 06:19:46;;;;;;;15.18;7.50;;;-1.10;99.90;;;;;;5092817;28;20059;-71
2024/01/10 06:22:12;;;;;;;13.70;7.05;;;-1.10;99.90;;;;;;5096629;28;20023;-69
2024/01/10 06:24:38;;;;;;;13.85;7.07;;;-1.10;99.90;;;;;;5112077;28;20020;-69
2024/01/10 06:27:05;;;;;;;13.77;6.63;;;-1.10;99.90;;;;;;5083058;28;20119;-70
2024/01/10 06:29:31;;;;;;;17.95;7.60;;;-1.10;99.90;;;;;;5111451;28;20356;-69
2024/01/10 06:31:57;;;;;;;15.73;7.72;;;-1.10;99.90;;;;;;5113489;28;20047;-69
2024/01/10 06:34:23;;;;;;;17.85;8.00;;;-1.10;99.90;;;;;;5106639;28;20077;-69
2024/01/10 06:36:49;;;;;;;16.25;8.23;;;-1.10;99.90;;;;;;5115916;28;20418;-69
2024/01/10 06:39:15;;;;;;;16.25;8.70;;;-1.20;99.90;;;;;;5113882;28;20036;-70
2024/01/10 06:41:42;;;;;;;15.13;7.85;;;-1.20;99.90;;;;;;5111620;28;20035;-70
2024/01/10 06:44:08;;;;;;;15.85;8.23;;;-1.20;99.90;;;;;;5115359;28;20515;-68
2024/01/10 06:46:34;;;;;;;15.88;8.32;;;-1.20;99.90;;;;;;5113159;28;20032;-70
2024/01/10 06:48:59;;;;;;;14.88;7.72;;;-1.20;99.90;;;;;;5104976;28;20044;-70
2024/01/10 06:51:26;;;;;;;14.13;7.70;;;-1.20;99.90;;;;;;5113986;28;20016;-69
2024/01/10 06:53:52;;;;;;;18.13;8.15;;;-1.20;99.90;;;;;;5114671;28;20125;-69
2024/01/10 06:56:17;;;;;;;14.48;7.50;;;-1.30;99.90;;;;;;5114233;28;20090;-70
2024/01/10 06:58:44;;;;;;;16.80;8.18;;;-1.30;99.90;;;;;;5113673;28;20032;-68
2024/01/10 07:01:14;;;;;;;15.57;8.10;;;-1.30;99.90;;;;;;5113164;28;20027;-68
2024/01/10 07:03:40;;;;;;;16.25;8.20;;;-1.20;99.90;;;;;;5095784;28;20028;-70
2024/01/10 07:06:05;;;;;;;16.38;7.43;;;-1.20;99.90;;;;;;5114765;28;20048;-70
2024/01/10 07:08:31;;;;;;;15.57;7.90;;;-1.30;99.90;;;;;;5114864;28;20404;-70
2024/01/10 07:10:57;;;;;;;14.82;7.43;;;-1.30;99.90;;;;;;5115260;28;20401;-70
2024/01/10 07:13:23;;;;;;;15.27;7.45;;;-1.20;99.90;;;;;;5114570;28;20024;-68
2024/01/10 07:15:50;;;;;;;15.85;7.63;;;-1.30;99.90;;;;;;5114331;28;20019;-70
2024/01/10 07:18:16;;;;;;;14.25;7.72;;;-1.20;99.90;;;;;;5115087;28;20051;-68
2024/01/10 07:20:42;;;;;;;15.40;8.02;;;-1.20;99.90;;;;;;5114675;28;20062;-69
2024/01/10 07:23:07;;;;;;;16.02;7.97;;;-1.20;99.90;;;;;;5115271;28;20039;-70
2024/01/10 07:25:33;;;;;;;14.35;7.38;;;-1.30;99.90;;;;;;5115018;28;20028;-68
2024/01/10 07:27:59;;;;;;;17.45;8.05;;;-1.30;99.90;;;;;;5114936;28;20129;-68
2024/01/10 07:30:25;;;;;;;16.67;8.70;;;-1.20;99.90;;;;;;5114779;28;20053;-69
2024/01/10 07:32:50;;;;;;;15.77;8.00;;;-1.20;99.90;;;;;;5114147;28;20066;-70
2024/01/10 07:35:16;;;;;;;16.67;8.55;;;-1.20;99.90;;;;;;5115099;28;20153;-68
2024/01/10 07:37:42;;;;;;;16.77;8.73;;;-1.20;99.90;;;;;;5114814;28;20110;-70
2024/01/10 07:40:10;;;;;;;15.02;7.85;;;-1.20;99.90;;;;;;5096567;28;20102;-69
2024/01/10 07:42:36;;;;;;;18.80;9.35;;;-1.20;99.90;;;;;;5113660;28;20470;-69
2024/01/10 07:45:04;;;;;;;17.30;9.32;;;-1.20;99.90;;;;;;5114118;28;20038;-68
2024/01/10 07:47:39;;;;;;;15.77;8.05;;;-1.10;99.90;;;;;;5114594;28;20118;-69
2024/01/10 07:50:09;;;;;;;16.50;8.05;;;-1.20;99.90;;;;;;5114669;28;20388;-69
2024/01/10 07:52:35;;;;;;;17.52;8.95;;;-1.10;99.90;;;;;;5114508;28;20023;-68
2024/01/10 07:55:01;;;;;;;16.25;8.02;;;-1.20;99.90;;;;;;5113777;28;20388;-68
2024/01/10 07:57:27;;;;;;;15.95;8.77;;;-1.10;99.90;;;;;;5113881;28;20031;-69
2024/01/10 07:59:53;;;;;;;15.45;7.95;;;-1.20;99.90;;;;;;5113915;28;20050;-69
2024/01/10 08:02:19;;;;;;;15.63;8.65;;;-1.10;99.90;;;;;;5112924;28;20380;-69
2024/01/10 08:04:44;;;;;;;16.38;8.73;;;-1.20;99.90;;;;;;5113673;28;20024;-69
2024/01/10 08:07:10;;;;;;;17.10;7.97;;;-1.10;99.90;;;;;;5114127;28;20023;-69
2024/01/10 08:09:36;;;;;;;16.70;8.15;;;-1.10;99.90;;;;;;5113616;28;20042;-67
2024/01/10 08:12:03;;;;;;;16.13;8.60;;;-1.10;99.90;;;;;;5114256;28;20110;-69
2024/01/10 08:14:28;;;;;;;16.20;8.32;;;-1.10;99.90;;;;;;5114157;28;20027;-69
2024/01/10 08:16:57;;;;;;;14.32;7.88;;;-1.10;99.90;;;;;;5114534;28;20080;-70
2024/01/10 08:19:26;;;;;;;16.08;8.63;;;-1.10;99.90;;;;;;5113952;28;20023;-69
2024/01/10 08:21:53;;;;;;;17.95;9.40;;;-1.10;99.90;;;;;;5113736;28;20061;-68
2024/01/10 08:24:20;;;;;;;16.05;8.93;;;-1.00;99.90;;;;;;5113568;28;20051;-68
2024/01/10 08:26:46;;;;;;;17.08;8.77;;;-1.00;99.90;;;;;;5095297;28;20027;-70
2024/01/10 08:29:12;;;;;;;18.90;8.25;;;-1.00;99.90;;;;;;5113511;28;20043;-70
2024/01/10 08:31:38;;;;;;;15.98;8.10;;;-1.00;99.90;;;;;;5113617;28;20030;-69
2024/01/10 08:34:04;;;;;;;17.50;9.13;;;-0.90;99.90;;;;;;5113826;28;20051;-69
2024/01/10 08:36:29;;;;;;;15.63;8.18;;;-0.90;99.90;;;;;;5112896;28;20108;-69
2024/01/10 08:38:55;;;;;;;16.20;7.95;;;-0.90;99.90;;;;;;5095142;28;20023;-68
2024/01/10 08:41:20;;;;;;;16.58;8.32;;;-0.90;99.90;;;;;;5095276;28;20055;-69
2024/01/10 08:43:49;;;;;;;16.83;8.48;;;-0.80;99.90;;;;;;5113675;28;20023;-68
2024/01/10 08:46:15;;;;;;;17.50;8.52;;;-0.80;99.90;;;;;;5094630;28;20026;-70
2024/01/10 08:48:41;;;;;;;17.60;8.18;;;-0.70;99.90;;;;;;5112881;28;20040;-68
2024/01/10 08:51:06;;;;;;;14.77;8.00;;;-0.70;99.90;;;;;;5113138;28;20026;-70
2024/01/10 08:53:32;;;;;;;14.95;8.05;;;-0.70;99.90;;;;;;5112982;28;20435;-69
2024/01/10 08:55:57;;;;;;;14.57;7.97;;;-0.60;99.90;;;;;;5112919;28;20024;-69
2024/01/10 08:58:23;;;;;;;15.75;8.27;;;-0.60;99.90;;;;;;5113164;28;20024;-69
2024/01/10 09:00:48;;;;;;;16.90;8.43;;;-0.60;99.90;;;;;;5113121;28;20051;-68
2024/01/10 09:03:14;;;;;;;17.40;8.63;;;-0.50;99.90;;;;;;5113333;28;20036;-68
2024/01/10 09:05:40;;;;;;;16.83;8.60;;;-0.50;99.90;;;;;;5112667;28;20066;-68
2024/01/10 09:08:05;;;;;;;15.45;8.65;;;-0.40;99.90;;;;;;5112949;28;20043;-69
2024/01/10 09:10:31;;;;;;;16.55;8.48;;;-0.40;99.90;;;;;;5112876;28;20019;-68
2024/01/10 09:12:58;;;;;;;15.23;7.95;;;-0.40;99.90;;;;;;5107387;28;20036;-68
2024/01/10 09:15:24;;;;;;;16.70;8.00;;;-0.30;99.90;;;;;;5112611;28;20502;-68
2024/01/10 09:17:52;;;;;;;16.20;7.32;;;-0.20;99.90;;;;;;5113030;28;20495;-68
2024/01/10 09:20:18;;;;;;;14.88;7.43;;;-0.20;99.90;;;;;;5112625;28;20118;-68
2024/01/10 09:22:44;;;;;;;16.98;8.20;;;-0.20;99.90;;;;;;5112711;28;20143;-68
2024/01/10 09:25:12;;;;;;;12.32;6.88;;;-0.10;99.90;;;;;;5112290;28;20063;-69
2024/01/10 09:27:40;;;;;;;15.35;6.78;;;0.00;99.90;;;;;;5112609;28;20434;-68
2024/01/10 09:30:08;;;;;;;17.48;7.93;;;0.00;99.90;;;;;;5112776;28;20016;-68
2024/01/10 09:32:34;;;;;;;14.30;7.45;;;0.10;99.90;;;;;;5112622;28;20075;-68
2024/01/10 09:35:00;;;;;;;14.73;7.40;;;0.10;99.90;;;;;;5112543;28;20392;-68
2024/01/10 09:37:26;;;;;;;13.68;7.32;;;0.20;99.90;;;;;;5112346;28;20020;-69
2024/01/10 09:39:52;;;;;;;15.05;6.78;;;0.20;99.90;;;;;;5113180;28;20102;-67
2024/01/10 09:42:19;;;;;;;14.13;6.65;;;0.30;99.90;;;;;;5112847;28;20084;-68
2024/01/10 09:44:46;;;;;;;13.80;6.60;;;0.30;99.90;;;;;;5112895;28;20023;-69
2024/01/10 09:47:14;;;;;;;13.98;6.75;;;0.40;99.90;;;;;;5112278;28;20472;-69
2024/01/10 09:49:40;;;;;;;13.35;6.78;;;0.50;99.90;;;;;;5112318;28;20023;-69
2024/01/10 09:52:10;;;;;;;12.35;6.55;;;0.50;99.90;;;;;;5112425;28;20330;-69
2024/01/10 09:54:40;;;;;;;12.70;6.40;;;0.70;99.90;;;;;;5110142;28;20522;-69
2024/01/10 09:57:05;;;;;;;16.25;6.93;;;0.70;99.90;;;;;;5112204;28;20544;-69
2024/01/10 09:59:31;;;;;;;20.23;7.53;;;0.90;99.90;;;;;;5112587;28;20016;-69
2024/01/10 10:01:58;;;;;;;13.15;6.78;;;1.00;99.90;;;;;;5111936;28;20028;-69
2024/01/10 10:04:27;;;;;;;13.25;6.88;;;1.20;99.90;;;;;;5112353;28;20027;-69
2024/01/10 10:07:03;;;;;;;15.98;7.13;;;1.50;99.90;;;;;;5114007;28;20031;-68
2024/01/10 10:09:32;;;;;;;13.00;6.75;;;1.90;99.90;;;;;;5116497;28;20051;-69
2024/01/10 10:11:57;;;;;;;12.95;6.05;;;2.50;99.90;;;;;;5115917;28;20028;-68
2024/01/10 10:14:28;;;;;;;11.25;6.50;;;3.00;99.60;;;;;;5116429;28;20029;-69
2024/01/10 10:16:53;;;;;;;11.75;5.88;;;3.60;98.50;;;;;;5116474;28;20023;-70
2024/01/10 10:19:25;;;;;;;11.13;6.20;;;4.30;96.60;;;;;;5116212;28;20484;-69
2024/01/10 10:21:51;;;;;;;10.48;5.45;;;4.60;95.00;;;;;;5116169;28;20034;-69
2024/01/10 10:24:16;;;;;;;13.57;6.05;;;4.30;94.50;;;;;;5113999;28;20019;-69
2024/01/10 10:26:42;;;;;;;15.00;6.55;;;3.80;94.90;;;;;;5097482;28;20027;-69
2024/01/10 10:29:09;;;;;;;11.68;6.28;;;3.40;95.70;;;;;;5115176;28;20114;-69
2024/01/10 10:31:35;;;;;;;14.30;6.20;;;3.20;96.70;;;;;;5115572;28;20032;-69
2024/01/10 10:34:02;;;;;;;13.85;5.82;;;3.40;96.60;;;;;;5115988;28;20080;-70
2024/01/10 10:36:29;;;;;;;13.18;6.53;;;3.90;95.40;;;;;;5115974;28;20461;-69
2024/01/10 10:38:55;;;;;;;11.32;5.90;;;4.60;94.90;;;;;;5115761;28;20028;-70
2024/01/10 10:41:21;;;;;;;14.88;6.40;;;5.20;94.40;;;;;;5116041;28;20030;-69
2024/01/10 10:43:50;;;;;;;14.35;6.35;;;5.80;93.90;;;;;;5115127;28;20015;-70
2024/01/10 10:46:16;;;;;;;12.00;6.10;;;6.20;93.20;;;;;;5115726;28;20073;-70
2024/01/10 10:48:42;;;;;;;12.13;6.65;;;6.60;92.40;;;;;;5114165;28;20442;-70
2024/01/10 10:51:36;;;;;;;14.52;6.20;;;6.80;92.50;;;;;;5115196;28;20028;-69
2024/01/10 10:54:04;;;;;;;11.63;6.25;;;6.90;91.80;;;;;;5115287;28;20114;-70
2024/01/10 10:56:34;;;;;;;11.75;5.78;;;6.90;91.60;;;;;;5112811;28;20118;-70
2024/01/10 10:59:01;;;;;;;12.55;6.20;;;7.00;92.10;;;;;;5115381;28;20028;-69
2024/01/10 11:01:27;;;;;;;11.77;6.55;;;7.30;91.30;;;;;;5112319;28;20028;-69
2024/01/10 11:03:54;;;;;;;11.50;6.40;;;7.30;91.10;;;;;;5114822;28;20487;-69
2024/01/10 11:06:21;;;;;;;15.80;6.20;;;7.40;90.80;;;;;;5112339;28;20067;-68
2024/01/10 11:08:52;;;;;;;14.43;6.20;;;7.30;90.80;;;;;;5114109;28;20468;-70
2024/01/10 11:11:37;;;;;;;13.13;6.78;;;7.30;91.40;;;;;;5114993;28;20042;-68
2024/01/10 11:14:15;;;;;;;12.80;6.68;;;7.30;91.40;;;;;;5114038;28;20023;-70
2024/01/10 11:17:18;;;;;;;15.00;6.93;;;7.60;91.40;;;;;;5114589;28;20192;-68
2024/01/10 11:19:49;;;;;;;11.88;6.55;;;7.70;91.00;;;;;;5111193;28;20026;-69
2024/01/10 11:22:37;;;;;;;11.45;6.78;;;7.60;91.00;;;;;;5114355;28;20019;-69
2024/01/10 11:25:03;;;;;;;13.70;6.65;;;7.70;90.90;;;;;;5111693;28;20043;-70
2024/01/10 11:27:30;;;;;;;12.68;6.60;;;7.70;91.20;;;;;;5114553;28;20062;-70
2024/01/10 11:29:56;;;;;;;14.00;7.28;;;7.60;91.20;;;;;;5114649;28;20050;-70
2024/01/10 11:32:23;;;;;;;13.80;7.55;;;7.60;91.30;;;;;;5114610;28;20027;-69
2024/01/10 11:35:07;;;;;;;13.85;7.30;;;7.70;91.40;;;;;;5114641;28;20029;-70
2024/01/10 11:37:47;;;;;;;14.65;7.55;;;7.90;91.70;;;;;;5112162;28;20039;-71
2024/01/10 11:40:13;;;;;;;13.13;7.40;;;8.00;91.60;;;;;;5111764;28;20443;-70
2024/01/10 11:42:43;;;;;;;13.82;7.90;;;8.10;91.40;;;;;;5115112;28;20051;-71
2024/01/10 11:45:09;;;;;;;15.50;7.32;;;8.10;91.70;;;;;;5115059;28;20024;-71
2024/01/10 11:47:37;;;;;;;14.85;7.63;;;8.20;91.30;;;;;;5114685;28;20415;-71
2024/01/10 11:50:05;;;;;;;13.93;7.55;;;8.10;91.50;;;;;;5112239;28;20019;-71
2024/01/10 11:52:34;;;;;;;15.85;7.50;;;8.10;91.40;;;;;;5114206;28;20036;-72
2024/01/10 11:55:00;;;;;;;14.60;7.15;;;8.10;91.50;;;;;;5114492;28;20031;-72
2024/01/10 11:57:27;;;;;;;15.27;7.75;;;7.90;91.60;;;;;;5114246;28;20027;-72
2024/01/10 11:59:56;;;;;;;14.52;7.25;;;7.80;91.60;;;;;;5114641;28;20465;-72
2024/01/10 12:02:25;;;;;;;15.65;7.80;;;7.70;92.00;;;;;;5112247;28;20043;-72
2024/01/10 12:04:50;;;;;;;15.27;7.40;;;7.60;91.90;;;;;;5113237;28;20058;-72
2024/01/10 12:07:17;;;;;;;14.10;7.40;;;7.40;92.10;;;;;;5112778;28;20024;-72
2024/01/10 12:09:43;;;;;;;16.33;7.95;;;7.30;92.10;;;;;;5095640;28;20114;-73
2024/01/10 12:12:11;;;;;;;14.80;8.02;;;7.10;92.40;;;;;;5112904;28;20516;-73
2024/01/10 12:14:36;;;;;;;15.32;8.20;;;7.10;92.20;;;;;;5114325;28;20062;-73
2024/01/10 12:17:04;;;;;;;18.60;8.60;;;7.00;92.60;;;;;;5113876;28;20047;-72
2024/01/10 12:19:30;;;;;;;15.70;7.90;;;7.10;92.50;;;;;;5113422;28;20566;-73
2024/01/10 12:21:56;;;;;;;15.77;8.25;;;7.00;92.20;;;;;;5113764;28;20035;-72
2024/01/10 12:24:21;;;;;;;13.43;7.18;;;6.90;92.10;;;;;;5113303;28;20072;-72
2024/01/10 12:26:50;;;;;;;13.45;7.22;;;6.80;91.90;;;;;;5113465;28;20028;-72
2024/01/10 12:29:22;;;;;;;13.15;7.45;;;6.60;92.50;;;;;;5113117;28;20038;-72
2024/01/10 12:31:48;;;;;;;16.02;7.75;;;6.50;92.50;;;;;;5113686;28;20049;-72